Helmsdale, United Kingdom
Current Conditions -  °F | °C
As of 4:50 PM on Saturday 20 Dec 2014 (Local Time) from EGQS Reporting Station
Broken Clouds Broken Clouds  
Wind Chill:   Ceiling: 25000
Heat Index:   Visibility: 6mi
Dew Point:   Wind: 13mph
Humidity: 70%   Direction: 280°W
Pressure: 30.06"   Gusts: NA
Location:  58.12°N, 3.66°W
Report Text: EGQS 201650Z 28011KT 9999 FEW040 SCT120 BKN250 05/00 Q1018 BLU
Loading
Personal Weather Stations






























Interactive Weather Map New forecast layout! Learn more

10-Day Weather Forecast

Advertisements
Track Severe Weather on mobile